Time;durP1;ratioP1;P1;durP2;ratioP2;P2;SDS_P1;SDS_P2;PMS_P1;PMS_P2;Temp;Humidity;BMP_temperature;BMP_pressure;BME280_temperature;BME280_humidity;BME280_pressure;Samples;Min_cycle;Max_cycle;Signal;HPM_P1;HPM_P2
2022/01/20 00:01:02;;;;;;;;;;;6.50;94.70;;;;;;4965109;28;20173;-86
2022/01/20 00:03:33;;;;;;;;;;;6.50;94.70;;;;;;4997534;28;20009;-86
2022/01/20 00:08:49;;;;;;;;;;;6.40;94.60;;;;;;5000254;28;19950;-85
2022/01/20 00:27:50;;;;;;;;;;;6.10;94.60;;;;;;4994876;28;19920;-85
2022/01/20 00:35:27;;;;;;;;;;;6.00;94.60;;;;;;4998815;28;20008;-85
2022/01/20 00:37:52;;;;;;;;;;;5.90;94.50;;;;;;4984706;28;19968;-86
2022/01/20 00:40:18;;;;;;;;;;;5.90;94.50;;;;;;5011120;28;19965;-86
2022/01/20 00:42:44;;;;;;;;;;;5.90;94.50;;;;;;4967486;28;20486;-86
2022/01/20 00:45:09;;;;;;;;;;;5.80;94.50;;;;;;5003995;28;19925;-85
2022/01/20 00:47:35;;;;;;;;;;;5.80;94.50;;;;;;4991281;28;19914;-85
2022/01/20 00:50:01;;;;;;;;;;;5.80;94.50;;;;;;4981546;28;20018;-85
2022/01/20 00:52:27;;;;;;;;;;;5.80;94.50;;;;;;4972975;28;19949;-85
2022/01/20 00:54:52;;;;;;;;;;;5.80;94.60;;;;;;4959548;28;20089;-85
2022/01/20 00:57:18;;;;;;;;;;;5.80;94.60;;;;;;4997086;28;19921;-85
2022/01/20 00:59:43;;;;;;;;;;;5.70;94.60;;;;;;4949925;28;20350;-86
2022/01/20 01:02:09;;;;;;;;;;;5.80;94.70;;;;;;4981475;28;20422;-86
2022/01/20 01:04:36;;;;;;;;;;;5.80;94.80;;;;;;4980059;28;20434;-86
2022/01/20 01:09:45;;;;;;;;;;;5.90;95.00;;;;;;4994534;28;19914;-86
2022/01/20 01:12:16;;;;;;;;;;;5.90;95.40;;;;;;4998794;28;20401;-86
2022/01/20 01:14:47;;;;;;;;;;;5.90;95.10;;;;;;4962687;28;20050;-85
2022/01/20 01:22:23;;;;;;;;;;;5.90;95.00;;;;;;4996682;28;19921;-86
2022/01/20 01:24:51;;;;;;;;;;;5.90;95.10;;;;;;4968530;28;19918;-86
2022/01/20 01:27:18;;;;;;;;;;;5.90;95.10;;;;;;4982216;28;19925;-86
2022/01/20 01:32:22;;;;;;;;;;;6.00;95.20;;;;;;4986570;28;20000;-86
2022/01/20 01:34:51;;;;;;;;;;;6.00;95.30;;;;;;4968084;28;20475;-86
2022/01/20 01:39:58;;;;;;;;;;;6.00;95.40;;;;;;5000229;28;20085;-86
2022/01/20 01:42:30;;;;;;;;;;;6.10;95.70;;;;;;4981352;28;19921;-86
2022/01/20 01:44:57;;;;;;;;;;;6.10;95.50;;;;;;4998643;28;20200;-86
2022/01/20 01:47:23;;;;;;;;;;;6.20;95.50;;;;;;4985114;28;19913;-86
2022/01/20 01:49:48;;;;;;;;;;;6.20;95.50;;;;;;4992875;28;20291;-86
2022/01/20 01:52:14;;;;;;;;;;;6.20;95.60;;;;;;4967791;28;19961;-86
2022/01/20 01:54:39;;;;;;;;;;;6.30;95.60;;;;;;5002309;28;20484;-86
2022/01/20 01:57:09;;;;;;;;;;;6.30;95.60;;;;;;4982211;28;19935;-86
2022/01/20 01:59:34;;;;;;;;;;;6.40;95.70;;;;;;4979431;28;19960;-86
2022/01/20 02:02:00;;;;;;;;;;;6.40;95.70;;;;;;4973975;28;19996;-86
2022/01/20 02:04:25;;;;;;;;;;;6.40;95.70;;;;;;4997818;28;19914;-86
2022/01/20 02:07:16;;;;;;;;;;;6.40;95.60;;;;;;4976719;28;19949;-87
2022/01/20 02:18:09;;;;;;;;;;;6.40;95.60;;;;;;4989078;28;19995;-86
2022/01/20 02:20:35;;;;;;;;;;;6.50;95.60;;;;;;4981985;28;19918;-86
2022/01/20 02:23:00;;;;;;;;;;;6.40;95.60;;;;;;4987584;28;20334;-86
2022/01/20 02:25:28;;;;;;;;;;;6.50;95.70;;;;;;4970536;28;19987;-86
2022/01/20 02:27:54;;;;;;;;;;;6.50;95.70;;;;;;4983154;28;19917;-86
2022/01/20 02:30:21;;;;;;;;;;;6.50;95.70;;;;;;4984605;28;20361;-86
2022/01/20 02:32:58;;;;;;;;;;;6.50;95.70;;;;;;4974451;28;20039;-86
2022/01/20 02:35:24;;;;;;;;;;;6.50;95.70;;;;;;5002221;28;20278;-86
2022/01/20 02:37:54;;;;;;;;;;;6.50;95.70;;;;;;4983066;28;20218;-86
2022/01/20 02:45:35;;;;;;;;;;;6.50;95.50;;;;;;4999849;28;20013;-86
2022/01/20 02:48:01;;;;;;;;;;;6.50;95.50;;;;;;4999785;28;19988;-86
2022/01/20 02:50:26;;;;;;;;;;;6.50;95.50;;;;;;4984547;28;19929;-86
2022/01/20 02:52:52;;;;;;;;;;;6.50;95.50;;;;;;4999082;28;20049;-86
2022/01/20 02:55:17;;;;;;;;;;;6.50;95.50;;;;;;4994225;28;19945;-86
2022/01/20 02:57:43;;;;;;;;;;;6.50;95.50;;;;;;4980149;28;20075;-86
2022/01/20 03:00:08;;;;;;;;;;;6.50;95.60;;;;;;4983806;28;19917;-86
2022/01/20 03:02:34;;;;;;;;;;;6.50;95.60;;;;;;4995098;28;19917;-86
2022/01/20 03:04:59;;;;;;;;;;;6.50;95.60;;;;;;4987206;28;19972;-86
2022/01/20 03:07:25;;;;;;;;;;;6.50;95.70;;;;;;4984165;28;20330;-87
2022/01/20 03:09:51;;;;;;;;;;;6.50;95.70;;;;;;4987967;28;19914;-87
2022/01/20 03:12:16;;;;;;;;;;;6.60;95.70;;;;;;4989577;28;19980;-86
2022/01/20 03:14:42;;;;;;;;;;;6.60;95.80;;;;;;4979447;28;19935;-86
2022/01/20 03:17:07;;;;;;;;;;;6.60;95.80;;;;;;4985807;28;19996;-87
2022/01/20 03:19:33;;;;;;;;;;;6.60;95.80;;;;;;4972364;28;19922;-87
2022/01/20 03:21:59;;;;;;;;;;;6.70;95.90;;;;;;4994223;28;19913;-86
2022/01/20 03:24:24;;;;;;;;;;;6.70;95.90;;;;;;4971818;28;19918;-85
2022/01/20 03:26:50;;;;;;;;;;;6.70;95.90;;;;;;4996038;28;19922;-87
2022/01/20 03:29:15;;;;;;;;;;;6.70;95.90;;;;;;5008562;28;19917;-86
2022/01/20 03:31:41;;;;;;;;;;;6.80;96.00;;;;;;4995998;28;20053;-86
2022/01/20 03:34:06;;;;;;;;;;;6.80;95.90;;;;;;5001832;28;19913;-86
2022/01/20 03:36:33;;;;;;;;;;;6.80;95.90;;;;;;4987895;28;19937;-85
2022/01/20 03:38:58;;;;;;;;;;;6.80;96.00;;;;;;4996443;28;19962;-86
2022/01/20 03:41:24;;;;;;;;;;;6.80;95.90;;;;;;4992415;28;19914;-86
2022/01/20 03:43:49;;;;;;;;;;;6.80;95.90;;;;;;4971257;28;19929;-85
2022/01/20 03:46:16;;;;;;;;;;;6.80;95.80;;;;;;4991257;28;19945;-86
2022/01/20 03:48:50;;;;;;;;;;;6.80;95.80;;;;;;4980853;28;20020;-86
2022/01/20 03:51:20;;;;;;;;;;;6.80;95.80;;;;;;4995433;28;20012;-86
2022/01/20 03:53:47;;;;;;;;;;;6.80;95.80;;;;;;4987022;28;20111;-85
2022/01/20 03:56:12;;;;;;;;;;;6.80;95.70;;;;;;5002605;28;19924;-86
2022/01/20 03:58:38;;;;;;;;;;;6.80;95.70;;;;;;4992909;28;20000;-85
2022/01/20 04:01:03;;;;;;;;;;;6.70;95.60;;;;;;4961076;28;19922;-85
2022/01/20 04:03:29;;;;;;;;;;;6.70;95.60;;;;;;4981795;28;19936;-85
2022/01/20 04:05:56;;;;;;;;;;;6.70;95.50;;;;;;4977343;28;19914;-85
2022/01/20 04:08:33;;;;;;;;;;;6.60;95.40;;;;;;4985039;28;19964;-85
2022/01/20 04:10:59;;;;;;;;;;;6.60;95.30;;;;;;4982293;28;19913;-85
2022/01/20 04:13:30;;;;;;;;;;;6.50;95.20;;;;;;5005586;28;19924;-86
2022/01/20 04:15:56;;;;;;;;;;;6.40;95.20;;;;;;4972394;28;19917;-86
2022/01/20 04:18:26;;;;;;;;;;;6.40;95.20;;;;;;4995445;28;20342;-85
2022/01/20 04:20:51;;;;;;;;;;;6.40;95.30;;;;;;4993739;28;20034;-86
2022/01/20 04:23:17;;;;;;;;;;;6.40;95.30;;;;;;4979937;28;19917;-86
2022/01/20 04:25:42;;;;;;;;;;;6.30;95.40;;;;;;4990071;28;19913;-85
2022/01/20 04:28:08;;;;;;;;;;;6.40;95.50;;;;;;4974636;28;19950;-86
2022/01/20 04:30:34;;;;;;;;;;;6.30;95.50;;;;;;5002711;28;20500;-86
2022/01/20 04:32:59;;;;;;;;;;;6.40;95.60;;;;;;4990254;28;20371;-86
2022/01/20 04:35:25;;;;;;;;;;;6.40;95.70;;;;;;4978648;28;20260;-86
2022/01/20 04:37:53;;;;;;;;;;;6.40;95.70;;;;;;4993117;28;20141;-86
2022/01/20 04:40:19;;;;;;;;;;;6.50;95.70;;;;;;4968379;28;19968;-86
2022/01/20 04:42:47;;;;;;;;;;;6.40;95.70;;;;;;4980365;28;20125;-86
2022/01/20 04:45:17;;;;;;;;;;;6.50;95.80;;;;;;4977114;28;19913;-87
2022/01/20 04:58:21;;;;;;;;;;;6.60;95.90;;;;;;5000435;28;20437;-85
2022/01/20 05:00:46;;;;;;;;;;;6.60;95.80;;;;;;4996203;28;20126;-85
2022/01/20 05:03:12;;;;;;;;;;;6.60;95.80;;;;;;4973699;28;19937;-85
2022/01/20 05:05:37;;;;;;;;;;;6.60;95.80;;;;;;4994950;28;19913;-85
2022/01/20 05:08:03;;;;;;;;;;;6.60;95.80;;;;;;4983096;28;20329;-84
2022/01/20 05:10:32;;;;;;;;;;;6.60;95.80;;;;;;4968255;28;19920;-84
2022/01/20 05:15:23;;;;;;;;;;;6.60;95.70;;;;;;4992491;28;19926;-85
2022/01/20 05:17:49;;;;;;;;;;;6.70;95.80;;;;;;4982297;28;20104;-86
2022/01/20 05:20:15;;;;;;;;;;;6.60;95.70;;;;;;4995140;28;20268;-85
2022/01/20 05:22:40;;;;;;;;;;;6.60;95.70;;;;;;4996918;28;20167;-87
2022/01/20 05:25:06;;;;;;;;;;;6.60;95.60;;;;;;4983865;28;19913;-84
2022/01/20 05:27:32;;;;;;;;;;;6.60;95.40;;;;;;4967916;28;20221;-85
2022/01/20 05:29:58;;;;;;;;;;;6.60;95.50;;;;;;4994973;28;20103;-85
2022/01/20 05:32:24;;;;;;;;;;;6.60;95.50;;;;;;4994338;28;19917;-86
2022/01/20 05:34:49;;;;;;;;;;;6.60;95.60;;;;;;4961148;28;19914;-85
2022/01/20 05:37:15;;;;;;;;;;;6.50;95.60;;;;;;4997347;28;19921;-88
2022/01/20 05:39:41;;;;;;;;;;;6.60;95.60;;;;;;4973399;28;19932;-86
2022/01/20 05:42:06;;;;;;;;;;;6.60;95.70;;;;;;4985534;28;20398;-87
2022/01/20 05:44:32;;;;;;;;;;;6.60;95.70;;;;;;4984293;28;19921;-85
2022/01/20 05:46:58;;;;;;;;;;;6.60;95.70;;;;;;4981966;28;20065;-86
2022/01/20 05:49:23;;;;;;;;;;;6.60;95.80;;;;;;4971007;28;19964;-87
2022/01/20 05:51:52;;;;;;;;;;;6.60;95.80;;;;;;4978844;28;19913;-86
2022/01/20 05:54:18;;;;;;;;;;;6.60;96.10;;;;;;4977927;28;19960;-86
2022/01/20 05:56:44;;;;;;;;;;;6.60;95.80;;;;;;4973860;28;20004;-86
2022/01/20 05:59:10;;;;;;;;;;;6.70;95.80;;;;;;4977766;28;19910;-85
2022/01/20 06:01:37;;;;;;;;;;;6.70;95.80;;;;;;4976957;28;19968;-85
2022/01/20 06:04:05;;;;;;;;;;;6.70;95.80;;;;;;4980489;28;20875;-86
2022/01/20 06:06:31;;;;;;;;;;;6.70;95.80;;;;;;4966587;28;19913;-85
2022/01/20 06:08:56;;;;;;;;;;;6.70;95.70;;;;;;4979953;28;19914;-86
2022/01/20 06:11:22;;;;;;;;;;;6.70;95.70;;;;;;4966185;28;20260;-85
2022/01/20 06:13:47;;;;;;;;;;;6.70;95.70;;;;;;4989383;28;19917;-86
2022/01/20 06:16:13;;;;;;;;;;;6.70;95.80;;;;;;4991652;28;19960;-85
2022/01/20 06:18:38;;;;;;;;;;;6.70;95.80;;;;;;4993448;28;19913;-86
2022/01/20 06:21:04;;;;;;;;;;;6.70;95.80;;;;;;5000002;28;19921;-85
2022/01/20 06:23:29;;;;;;;;;;;6.70;95.80;;;;;;4993831;28;19914;-85
2022/01/20 06:25:55;;;;;;;;;;;6.70;95.80;;;;;;4968503;28;19917;-85
2022/01/20 06:28:21;;;;;;;;;;;6.70;95.80;;;;;;4976457;28;19918;-85
2022/01/20 06:30:47;;;;;;;;;;;6.70;95.80;;;;;;4995870;28;20421;-85
2022/01/20 06:33:13;;;;;;;;;;;6.70;95.80;;;;;;5010140;28;20574;-85
2022/01/20 06:35:38;;;;;;;;;;;6.70;95.80;;;;;;4990227;28;20248;-87
2022/01/20 06:38:04;;;;;;;;;;;6.70;95.80;;;;;;4968190;28;20420;-85
2022/01/20 06:40:30;;;;;;;;;;;6.70;95.80;;;;;;4965613;28;20491;-85
2022/01/20 06:42:56;;;;;;;;;;;6.70;95.70;;;;;;4984933;28;20012;-85
2022/01/20 06:45:23;;;;;;;;;;;6.70;95.60;;;;;;4977435;28;20111;-85
2022/01/20 06:47:48;;;;;;;;;;;6.70;95.60;;;;;;4977236;28;20142;-85
2022/01/20 06:50:14;;;;;;;;;;;6.70;95.60;;;;;;4979850;28;19929;-86
2022/01/20 06:52:40;;;;;;;;;;;6.60;95.60;;;;;;4977775;28;20559;-85
2022/01/20 06:55:07;;;;;;;;;;;6.60;95.60;;;;;;4979037;28;20008;-85
2022/01/20 06:57:33;;;;;;;;;;;6.60;95.70;;;;;;4956556;28;20252;-84
2022/01/20 06:59:58;;;;;;;;;;;6.60;95.70;;;;;;4993181;28;20398;-84
2022/01/20 07:02:24;;;;;;;;;;;6.60;95.70;;;;;;4991793;28;19960;-84
2022/01/20 07:04:50;;;;;;;;;;;6.60;95.70;;;;;;4981612;28;19913;-85
2022/01/20 07:07:16;;;;;;;;;;;6.60;95.70;;;;;;4992057;28;20461;-84
2022/01/20 07:09:42;;;;;;;;;;;6.60;95.70;;;;;;4974927;28;19917;-85
2022/01/20 07:12:08;;;;;;;;;;;6.60;95.70;;;;;;4967855;28;19921;-85
2022/01/20 07:14:33;;;;;;;;;;;6.60;95.70;;;;;;4995719;28;20100;-85
2022/01/20 07:16:59;;;;;;;;;;;6.50;95.60;;;;;;4978316;28;20008;-85
2022/01/20 07:19:25;;;;;;;;;;;6.60;95.70;;;;;;4993176;28;19949;-85
2022/01/20 07:21:51;;;;;;;;;;;6.60;95.70;;;;;;4992809;28;20008;-84
2022/01/20 07:24:16;;;;;;;;;;;6.50;95.70;;;;;;4970727;28;20389;-85
2022/01/20 07:26:42;;;;;;;;;;;6.60;95.70;;;;;;4976960;28;20176;-84
2022/01/20 07:29:08;;;;;;;;;;;6.50;95.70;;;;;;4952037;28;19948;-84
2022/01/20 07:31:33;;;;;;;;;;;6.50;95.70;;;;;;4976629;28;19921;-86
2022/01/20 07:33:59;;;;;;;;;;;6.60;95.70;;;;;;5009848;28;19913;-85
2022/01/20 07:36:25;;;;;;;;;;;6.60;95.70;;;;;;4969728;28;20193;-85
2022/01/20 07:38:50;;;;;;;;;;;6.60;95.70;;;;;;4993916;28;20394;-85
2022/01/20 07:41:16;;;;;;;;;;;6.60;95.70;;;;;;4987777;28;20432;-85
2022/01/20 07:43:42;;;;;;;;;;;6.60;95.70;;;;;;4963371;28;20506;-84
2022/01/20 07:46:07;;;;;;;;;;;6.60;95.70;;;;;;4975533;28;19918;-85
2022/01/20 07:48:33;;;;;;;;;;;6.60;95.70;;;;;;4975584;28;19969;-85
2022/01/20 07:50:59;;;;;;;;;;;6.60;96.00;;;;;;5006328;28;20008;-85
2022/01/20 07:53:24;;;;;;;;;;;6.60;95.70;;;;;;4994934;28;20210;-85
2022/01/20 07:55:50;;;;;;;;;;;6.60;95.70;;;;;;4983997;28;19924;-84
2022/01/20 07:58:16;;;;;;;;;;;6.60;95.70;;;;;;4970573;28;20064;-85
2022/01/20 08:00:42;;;;;;;;;;;6.60;95.70;;;;;;4968234;28;19925;-84
2022/01/20 08:03:07;;;;;;;;;;;6.60;95.70;;;;;;4982541;28;20059;-84
2022/01/20 08:05:33;;;;;;;;;;;6.60;95.80;;;;;;4985295;28;20385;-84
2022/01/20 08:07:58;;;;;;;;;;;6.60;95.70;;;;;;5001327;28;20247;-84
2022/01/20 08:10:24;;;;;;;;;;;6.60;95.70;;;;;;4973331;28;19914;-84
2022/01/20 08:12:49;;;;;;;;;;;6.70;95.80;;;;;;4974770;28;19944;-85
2022/01/20 08:15:15;;;;;;;;;;;6.70;95.80;;;;;;4981748;28;20012;-84
2022/01/20 08:17:41;;;;;;;;;;;6.70;95.80;;;;;;4988439;28;19913;-84
2022/01/20 08:20:07;;;;;;;;;;;6.70;95.80;;;;;;4994114;28;20134;-84
2022/01/20 08:22:36;;;;;;;;;;;6.70;95.80;;;;;;4984226;28;19968;-84
2022/01/20 08:25:06;;;;;;;;;;;6.70;95.80;;;;;;4983020;28;19930;-84
2022/01/20 08:27:31;;;;;;;;;;;6.70;95.80;;;;;;4974601;28;19968;-84
2022/01/20 08:29:57;;;;;;;;;;;6.70;95.80;;;;;;4979535;28;19914;-84
2022/01/20 08:32:23;;;;;;;;;;;6.70;96.00;;;;;;4957264;28;19918;-84
2022/01/20 08:34:48;;;;;;;;;;;6.70;95.80;;;;;;5012297;28;19960;-85
2022/01/20 08:37:14;;;;;;;;;;;6.70;95.80;;;;;;4966170;28;20534;-84
2022/01/20 08:39:40;;;;;;;;;;;6.70;95.80;;;;;;4966028;28;20383;-85
2022/01/20 08:42:06;;;;;;;;;;;6.80;95.80;;;;;;4964273;28;20280;-85
2022/01/20 08:44:32;;;;;;;;;;;6.80;95.90;;;;;;4981536;28;20326;-85
2022/01/20 08:46:58;;;;;;;;;;;6.80;96.00;;;;;;4963828;28;19922;-85
2022/01/20 08:49:24;;;;;;;;;;;6.90;96.10;;;;;;4994802;28;19944;-85
2022/01/20 08:51:51;;;;;;;;;;;7.00;96.30;;;;;;4972185;28;20363;-85
2022/01/20 08:54:16;;;;;;;;;;;7.10;96.30;;;;;;4992959;28;19914;-85
2022/01/20 08:56:42;;;;;;;;;;;7.10;96.30;;;;;;4990835;28;20840;-84
2022/01/20 08:59:08;;;;;;;;;;;7.20;96.30;;;;;;5007596;28;19924;-85
2022/01/20 09:01:34;;;;;;;;;;;7.30;96.30;;;;;;4980285;28;19925;-84
2022/01/20 09:04:00;;;;;;;;;;;7.40;96.40;;;;;;4978203;28;19972;-85
2022/01/20 09:06:25;;;;;;;;;;;7.40;96.40;;;;;;5006476;28;19949;-85
2022/01/20 09:08:51;;;;;;;;;;;7.50;96.40;;;;;;4967813;28;19922;-85
2022/01/20 09:11:22;;;;;;;;;;;7.50;96.30;;;;;;4998058;28;19914;-86
2022/01/20 09:16:32;;;;;;;;;;;7.50;96.10;;;;;;4998770;28;20490;-84
2022/01/20 09:18:58;;;;;;;;;;;7.60;96.10;;;;;;4957728;28;19962;-85
2022/01/20 09:21:25;;;;;;;;;;;7.60;96.10;;;;;;4973633;28;20042;-85
2022/01/20 09:23:51;;;;;;;;;;;7.60;96.00;;;;;;4975441;28;20008;-86
2022/01/20 09:26:16;;;;;;;;;;;7.50;95.90;;;;;;4963100;28;20008;-85
2022/01/20 09:28:42;;;;;;;;;;;7.50;95.80;;;;;;4973179;28;19974;-85
2022/01/20 09:31:09;;;;;;;;;;;7.50;95.80;;;;;;4979054;28;20186;-87
2022/01/20 09:33:34;;;;;;;;;;;7.50;95.80;;;;;;4999098;28;20199;-85
2022/01/20 09:36:00;;;;;;;;;;;7.50;95.70;;;;;;4956665;28;20490;-85
2022/01/20 09:38:27;;;;;;;;;;;7.50;95.80;;;;;;4978182;28;20379;-86
2022/01/20 09:40:53;;;;;;;;;;;7.50;95.80;;;;;;4974695;28;19933;-85
2022/01/20 09:43:18;;;;;;;;;;;7.50;95.80;;;;;;4972589;28;19921;-85
2022/01/20 09:45:46;;;;;;;;;;;7.50;95.80;;;;;;4977178;28;20381;-85
2022/01/20 09:48:12;;;;;;;;;;;7.60;95.90;;;;;;4972047;28;20419;-86
2022/01/20 09:50:37;;;;;;;;;;;7.60;95.90;;;;;;4974946;28;19922;-85
2022/01/20 09:53:04;;;;;;;;;;;7.60;95.90;;;;;;5011683;28;20022;-85
2022/01/20 09:55:30;;;;;;;;;;;7.60;95.90;;;;;;4974244;28;19913;-86
2022/01/20 09:57:56;;;;;;;;;;;7.70;95.90;;;;;;4998683;28;19917;-85
2022/01/20 10:00:21;;;;;;;;;;;7.70;95.90;;;;;;4977081;28;20059;-86
2022/01/20 10:02:53;;;;;;;;;;;7.80;96.00;;;;;;4974245;28;19961;-85
2022/01/20 10:05:45;;;;;;;;;;;7.80;96.00;;;;;;4999269;28;19975;-86
2022/01/20 10:08:13;;;;;;;;;;;7.90;96.00;;;;;;4979072;28;20490;-85
2022/01/20 10:10:40;;;;;;;;;;;8.00;96.00;;;;;;4994873;28;20363;-85
2022/01/20 10:13:07;;;;;;;;;;;8.00;96.00;;;;;;4984612;28;19957;-86
2022/01/20 10:15:32;;;;;;;;;;;8.10;96.20;;;;;;4988963;28;19968;-86
2022/01/20 10:18:05;;;;;;;;;;;8.40;96.80;;;;;;4986237;28;20173;-85
2022/01/20 10:20:30;;;;;;;;;;;8.80;97.40;;;;;;4987310;28;20233;-86
2022/01/20 10:22:56;;;;;;;;;;;9.20;97.70;;;;;;4979925;28;20375;-85
2022/01/20 10:25:22;;;;;;;;;;;9.50;97.50;;;;;;4995061;28;19925;-86
2022/01/20 10:27:49;;;;;;;;;;;9.70;97.00;;;;;;4969108;28;19924;-86
2022/01/20 10:30:15;;;;;;;;;;;9.80;96.50;;;;;;4971692;28;20912;-85
2022/01/20 10:32:41;;;;;;;;;;;9.70;95.90;;;;;;4996465;28;20000;-86
2022/01/20 10:35:07;;;;;;;;;;;9.70;95.70;;;;;;4980154;28;20354;-86
2022/01/20 10:37:32;;;;;;;;;;;9.60;95.40;;;;;;4984749;28;20009;-86
2022/01/20 10:40:06;;;;;;;;;;;9.50;95.30;;;;;;4994351;28;20143;-86
2022/01/20 10:42:42;;;;;;;;;;;9.50;95.10;;;;;;5004369;28;19948;-86
2022/01/20 10:45:16;;;;;;;;;;;9.40;95.10;;;;;;5005820;28;20163;-86
2022/01/20 10:47:46;;;;;;;;;;;9.30;95.20;;;;;;4988934;28;19913;-86
2022/01/20 10:50:13;;;;;;;;;;;9.50;95.70;;;;;;4977912;28;19914;-86
2022/01/20 10:52:41;;;;;;;;;;;9.70;96.10;;;;;;4985375;28;20007;-86
2022/01/20 10:55:17;;;;;;;;;;;10.10;96.80;;;;;;4999082;28;19920;-86
2022/01/20 10:57:42;;;;;;;;;;;10.50;97.30;;;;;;4981590;28;19914;-86
2022/01/20 11:00:10;;;;;;;;;;;11.10;97.70;;;;;;4991719;28;19953;-86
2022/01/20 11:02:35;;;;;;;;;;;11.70;97.90;;;;;;4989232;28;19914;-86
2022/01/20 11:05:01;;;;;;;;;;;12.30;98.00;;;;;;4974436;28;20067;-86
2022/01/20 11:07:27;;;;;;;;;;;12.80;98.00;;;;;;4970867;28;19921;-86
2022/01/20 11:10:02;;;;;;;;;;;13.40;97.90;;;;;;4998283;28;20378;-87
2022/01/20 11:12:27;;;;;;;;;;;13.90;97.90;;;;;;4980356;28;19920;-86
2022/01/20 11:14:54;;;;;;;;;;;14.50;97.50;;;;;;4998071;28;19917;-86
2022/01/20 11:17:20;;;;;;;;;;;14.80;96.90;;;;;;4993669;28;19936;-86
2022/01/20 11:19:46;;;;;;;;;;;14.90;95.80;;;;;;4998670;28;19926;-86
2022/01/20 11:22:13;;;;;;;;;;;14.90;94.90;;;;;;4981229;28;24326;-87
2022/01/20 11:24:39;;;;;;;;;;;14.80;94.20;;;;;;4997510;28;20571;-86
2022/01/20 11:27:06;;;;;;;;;;;14.60;93.70;;;;;;4992962;28;20036;-86
2022/01/20 11:29:38;;;;;;;;;;;14.30;93.30;;;;;;5003409;28;19913;-87
2022/01/20 11:32:14;;;;;;;;;;;14.00;92.60;;;;;;4987115;28;19921;-85
2022/01/20 11:34:40;;;;;;;;;;;13.70;92.20;;;;;;4992534;28;19914;-85
2022/01/20 11:37:06;;;;;;;;;;;13.30;92.00;;;;;;4970000;28;20093;-87
2022/01/20 11:39:32;;;;;;;;;;;13.00;91.90;;;;;;5017602;28;19967;-85
2022/01/20 11:42:00;;;;;;;;;;;12.80;92.50;;;;;;4995250;28;19914;-86
2022/01/20 11:44:28;;;;;;;;;;;12.80;93.00;;;;;;4971053;28;19918;-86
2022/01/20 11:47:03;;;;;;;;;;;12.70;93.60;;;;;;4992285;28;19961;-85
2022/01/20 11:49:34;;;;;;;;;;;12.70;93.90;;;;;;4981536;28;19913;-86
2022/01/20 11:51:59;;;;;;;;;;;12.70;94.10;;;;;;4994298;28;19924;-85
2022/01/20 11:54:31;;;;;;;;;;;12.70;93.60;;;;;;4970654;28;19918;-86
2022/01/20 11:57:09;;;;;;;;;;;12.60;93.50;;;;;;4991208;28;20118;-86
2022/01/20 11:59:57;;;;;;;;;;;12.40;92.90;;;;;;4978518;28;19925;-86
2022/01/20 12:02:27;;;;;;;;;;;12.50;93.00;;;;;;5007880;28;20435;-85
2022/01/20 12:04:53;;;;;;;;;;;12.50;93.60;;;;;;4987557;28;19913;-86
2022/01/20 12:07:25;;;;;;;;;;;12.60;93.70;;;;;;4995263;28;19914;-85
2022/01/20 12:09:50;;;;;;;;;;;12.70;94.10;;;;;;4966442;28;19967;-86
2022/01/20 12:12:23;;;;;;;;;;;12.90;94.40;;;;;;4982446;28;19914;-85
2022/01/20 12:14:48;;;;;;;;;;;13.00;94.20;;;;;;4991090;28;19985;-85
2022/01/20 12:17:17;;;;;;;;;;;13.20;93.90;;;;;;4993570;28;20008;-86
2022/01/20 12:19:47;;;;;;;;;;;13.20;93.40;;;;;;4990505;28;20039;-85
2022/01/20 12:22:12;;;;;;;;;;;13.10;92.90;;;;;;4995029;28;20080;-85
2022/01/20 12:24:48;;;;;;;;;;;13.00;92.50;;;;;;4979426;28;20255;-84
2022/01/20 12:27:18;;;;;;;;;;;12.80;92.10;;;;;;4973520;28;20165;-85
2022/01/20 12:29:44;;;;;;;;;;;12.60;91.70;;;;;;4997276;28;20293;-85
2022/01/20 12:32:10;;;;;;;;;;;12.40;91.80;;;;;;4967938;28;20015;-86
2022/01/20 12:34:36;;;;;;;;;;;12.40;92.20;;;;;;4974185;28;19917;-85
2022/01/20 12:37:02;;;;;;;;;;;12.40;92.90;;;;;;4976185;28;19952;-86
2022/01/20 12:39:32;;;;;;;;;;;12.50;93.10;;;;;;4999035;28;20089;-86
2022/01/20 12:42:06;;;;;;;;;;;12.60;93.20;;;;;;4981901;28;19913;-86
2022/01/20 12:44:35;;;;;;;;;;;12.70;93.50;;;;;;4982658;28;20394;-85
2022/01/20 12:47:01;;;;;;;;;;;13.10;94.30;;;;;;4989360;28;20194;-86
2022/01/20 12:49:26;;;;;;;;;;;13.30;94.50;;;;;;5001057;28;19922;-85
2022/01/20 12:51:54;;;;;;;;;;;13.70;94.90;;;;;;4985803;28;19956;-85
2022/01/20 12:54:39;;;;;;;;;;;14.10;95.20;;;;;;4981064;28;20000;-86
2022/01/20 12:57:09;;;;;;;;;;;14.50;95.40;;;;;;4974511;28;20550;-86
2022/01/20 12:59:34;;;;;;;;;;;14.80;95.00;;;;;;4974530;28;19932;-86
2022/01/20 13:02:01;;;;;;;;;;;15.10;94.40;;;;;;4987584;28;20074;-85
2022/01/20 13:04:28;;;;;;;;;;;15.40;94.40;;;;;;4981276;28;20416;-85
2022/01/20 13:06:57;;;;;;;;;;;15.60;94.10;;;;;;4984912;28;19950;-86
2022/01/20 13:09:25;;;;;;;;;;;15.90;94.10;;;;;;4992680;28;20279;-86
2022/01/20 13:11:57;;;;;;;;;;;16.00;93.20;;;;;;4978241;28;19948;-85
2022/01/20 13:14:38;;;;;;;;;;;15.90;92.20;;;;;;4969745;28;19913;-85
2022/01/20 13:17:05;;;;;;;;;;;15.80;91.70;;;;;;5012057;28;20539;-85
2022/01/20 13:19:31;;;;;;;;;;;15.60;91.40;;;;;;4999341;28;19928;-86
2022/01/20 13:21:57;;;;;;;;;;;15.50;91.50;;;;;;4969971;28;20099;-87
2022/01/20 13:24:27;;;;;;;;;;;15.30;91.00;;;;;;5000350;28;19959;-85
2022/01/20 13:26:53;;;;;;;;;;;15.10;90.00;;;;;;4994069;28;19956;-86
2022/01/20 13:29:19;;;;;;;;;;;14.80;90.10;;;;;;4968762;28;19917;-84
2022/01/20 13:31:46;;;;;;;;;;;14.60;90.10;;;;;;4977696;28;20004;-85
2022/01/20 13:34:13;;;;;;;;;;;14.30;90.20;;;;;;4989050;28;20130;-85
2022/01/20 13:36:39;;;;;;;;;;;14.10;90.00;;;;;;4972285;28;20488;-85
2022/01/20 13:39:05;;;;;;;;;;;14.00;90.40;;;;;;4975867;28;19914;-85
2022/01/20 13:41:33;;;;;;;;;;;13.80;90.60;;;;;;5001252;28;20198;-85
2022/01/20 13:46:45;;;;;;;;;;;13.70;90.30;;;;;;5013785;28;19914;-86
2022/01/20 13:49:10;;;;;;;;;;;13.60;90.70;;;;;;4983887;28;19913;-84
2022/01/20 13:51:36;;;;;;;;;;;13.60;91.40;;;;;;4987081;28;19913;-86
2022/01/20 13:54:02;;;;;;;;;;;13.60;91.20;;;;;;4987099;28;20513;-85
2022/01/20 13:56:29;;;;;;;;;;;13.60;91.00;;;;;;4981154;28;20016;-85
2022/01/20 13:59:06;;;;;;;;;;;13.50;90.50;;;;;;4997122;28;19991;-85
2022/01/20 14:01:31;;;;;;;;;;;13.30;90.50;;;;;;4964730;28;19929;-85
2022/01/20 14:03:57;;;;;;;;;;;13.20;90.60;;;;;;4980701;28;20023;-86
2022/01/20 14:06:22;;;;;;;;;;;13.10;90.70;;;;;;4981246;28;20375;-84
2022/01/20 14:08:48;;;;;;;;;;;13.00;90.60;;;;;;4975443;28;19928;-85
2022/01/20 14:11:14;;;;;;;;;;;12.90;90.60;;;;;;4983563;28;19967;-85
2022/01/20 14:13:40;;;;;;;;;;;12.80;90.60;;;;;;4979584;28;20323;-86
2022/01/20 14:16:06;;;;;;;;;;;12.70;90.80;;;;;;4971692;28;20455;-85
2022/01/20 14:18:40;;;;;;;;;;;12.70;91.00;;;;;;4980040;28;19913;-83
2022/01/20 14:21:07;;;;;;;;;;;12.60;90.90;;;;;;5004476;28;20435;-85
2022/01/20 14:23:32;;;;;;;;;;;12.50;90.80;;;;;;4972848;28;19913;-84
2022/01/20 14:26:00;;;;;;;;;;;12.40;90.70;;;;;;4977017;28;19925;-85
2022/01/20 14:28:26;;;;;;;;;;;12.40;90.70;;;;;;4996732;28;19927;-82
2022/01/20 14:30:51;;;;;;;;;;;12.20;90.70;;;;;;4967016;28;20323;-86
2022/01/20 14:33:17;;;;;;;;;;;12.20;90.50;;;;;;4985704;28;19914;-85
2022/01/20 14:35:44;;;;;;;;;;;12.10;90.70;;;;;;4998088;28;20358;-84
2022/01/20 14:38:10;;;;;;;;;;;12.00;90.80;;;;;;4999057;28;19918;-83
2022/01/20 14:40:35;;;;;;;;;;;11.90;90.90;;;;;;4968816;28;19921;-84
2022/01/20 14:43:01;;;;;;;;;;;11.80;90.90;;;;;;5001196;28;19913;-85
2022/01/20 14:45:27;;;;;;;;;;;11.70;90.30;;;;;;4996983;28;19914;-85
2022/01/20 14:47:52;;;;;;;;;;;11.60;90.20;;;;;;4965766;28;19914;-85
2022/01/20 14:50:20;;;;;;;;;;;11.50;90.20;;;;;;4995760;28;19944;-84
2022/01/20 14:52:46;;;;;;;;;;;11.30;90.10;;;;;;5009330;28;20158;-85
2022/01/20 14:55:11;;;;;;;;;;;11.20;90.20;;;;;;5000259;28;19941;-84
2022/01/20 14:57:37;;;;;;;;;;;11.10;90.10;;;;;;4986045;28;20378;-85
2022/01/20 15:00:04;;;;;;;;;;;11.00;90.10;;;;;;5000863;28;20414;-86
2022/01/20 15:02:29;;;;;;;;;;;10.90;90.40;;;;;;4974702;28;19917;-86
2022/01/20 15:04:55;;;;;;;;;;;10.70;90.20;;;;;;4992373;28;20402;-85
2022/01/20 15:07:21;;;;;;;;;;;10.60;90.00;;;;;;5000891;28;20424;-85
2022/01/20 15:09:47;;;;;;;;;;;10.50;90.20;;;;;;4997262;28;20465;-85
2022/01/20 15:12:13;;;;;;;;;;;10.30;90.10;;;;;;4991593;28;20290;-85
2022/01/20 15:14:39;;;;;;;;;;;10.20;90.10;;;;;;4995997;28;19913;-85
2022/01/20 15:17:05;;;;;;;;;;;10.10;90.20;;;;;;4996825;28;19921;-84
2022/01/20 15:19:30;;;;;;;;;;;9.90;90.00;;;;;;4980060;28;19913;-85
2022/01/20 15:21:56;;;;;;;;;;;9.80;90.00;;;;;;4976442;28;19913;-86
2022/01/20 15:24:22;;;;;;;;;;;9.80;90.40;;;;;;4996907;28;20074;-85
2022/01/20 15:26:47;;;;;;;;;;;9.70;90.80;;;;;;4986846;28;19932;-86
2022/01/20 15:29:14;;;;;;;;;;;9.60;90.70;;;;;;4985038;28;20004;-85
2022/01/20 15:31:41;;;;;;;;;;;9.60;90.80;;;;;;4978874;28;19918;-83
2022/01/20 15:34:12;;;;;;;;;;;9.60;90.80;;;;;;4977477;28;20196;-83